sensor_id;sensor_type;location;lat;lon;timestamp;pressure;altitude;pressure_sealevel;temperature;humidity
20696;BME280;10507;52.754;13.040;2024-03-08T00:00:41;101847.53;;;-0.47;100.00
20696;BME280;10507;52.754;13.040;2024-03-08T00:03:08;101845.00;;;-0.43;100.00
20696;BME280;10507;52.754;13.040;2024-03-08T00:05:37;101850.16;;;-0.47;100.00
20696;BME280;10507;52.754;13.040;2024-03-08T00:08:05;101859.09;;;-0.36;100.00
20696;BME280;10507;52.754;13.040;2024-03-08T00:10:35;101850.38;;;-0.32;100.00
20696;BME280;10507;52.754;13.040;2024-03-08T00:13:04;101844.25;;;-0.32;100.00
20696;BME280;10507;52.754;13.040;2024-03-08T00:15:31;101849.47;;;-0.34;100.00
20696;BME280;10507;52.754;13.040;2024-03-08T00:17:58;101848.59;;;-0.34;100.00
20696;BME280;10507;52.754;13.040;2024-03-08T00:20:25;101844.28;;;-0.31;100.00
20696;BME280;10507;52.754;13.040;2024-03-08T00:22:53;101841.66;;;-0.29;100.00
20696;BME280;10507;52.754;13.040;2024-03-08T00:25:23;101840.75;;;-0.36;100.00
20696;BME280;10507;52.754;13.040;2024-03-08T00:27:50;101838.94;;;-0.37;100.00
20696;BME280;10507;52.754;13.040;2024-03-08T00:30:21;101840.75;;;-0.33;100.00
20696;BME280;10507;52.754;13.040;2024-03-08T00:32:48;101840.75;;;-0.33;100.00
20696;BME280;10507;52.754;13.040;2024-03-08T00:35:15;101835.41;;;-0.39;100.00
20696;BME280;10507;52.754;13.040;2024-03-08T00:37:41;101833.72;;;-0.37;100.00
20696;BME280;10507;52.754;13.040;2024-03-08T00:40:10;101830.19;;;-0.39;100.00
20696;BME280;10507;52.754;13.040;2024-03-08T00:42:37;101839.78;;;-0.39;100.00
20696;BME280;10507;52.754;13.040;2024-03-08T00:45:05;101831.00;;;-0.43;100.00
20696;BME280;10507;52.754;13.040;2024-03-08T00:47:32;101831.75;;;-0.50;100.00
20696;BME280;10507;52.754;13.040;2024-03-08T00:49:59;101829.31;;;-0.39;100.00
20696;BME280;10507;52.754;13.040;2024-03-08T00:52:29;101826.72;;;-0.38;100.00
20696;BME280;10507;52.754;13.040;2024-03-08T00:54:55;101830.19;;;-0.39;100.00
20696;BME280;10507;52.754;13.040;2024-03-08T00:57:23;101823.97;;;-0.46;100.00
20696;BME280;10507;52.754;13.040;2024-03-08T00:59:50;101823.09;;;-0.46;100.00
20696;BME280;10507;52.754;13.040;2024-03-08T01:02:18;101825.69;;;-0.49;100.00
20696;BME280;10507;52.754;13.040;2024-03-08T01:04:44;101815.03;;;-0.60;100.00
20696;BME280;10507;52.754;13.040;2024-03-08T01:07:12;101820.19;;;-0.63;100.00
20696;BME280;10507;52.754;13.040;2024-03-08T01:09:39;101812.16;;;-0.75;100.00
20696;BME280;10507;52.754;13.040;2024-03-08T01:12:06;101814.66;;;-0.83;100.00
20696;BME280;10507;52.754;13.040;2024-03-08T01:14:34;101811.16;;;-0.84;100.00
20696;BME280;10507;52.754;13.040;2024-03-08T01:17:01;101811.09;;;-0.88;100.00
20696;BME280;10507;52.754;13.040;2024-03-08T01:19:28;101805.03;;;-0.84;100.00
20696;BME280;10507;52.754;13.040;2024-03-08T01:21:57;101807.81;;;-0.75;100.00
20696;BME280;10507;52.754;13.040;2024-03-08T01:24:24;101805.06;;;-0.81;100.00
20696;BME280;10507;52.754;13.040;2024-03-08T01:26:51;101790.97;;;-0.91;100.00
20696;BME280;10507;52.754;13.040;2024-03-08T01:29:17;101794.28;;;-1.01;100.00
20696;BME280;10507;52.754;13.040;2024-03-08T01:31:45;101797.63;;;-1.11;100.00
20696;BME280;10507;52.754;13.040;2024-03-08T01:34:12;101797.53;;;-1.16;100.00
20696;BME280;10507;52.754;13.040;2024-03-08T01:36:39;101790.63;;;-1.11;100.00
20696;BME280;10507;52.754;13.040;2024-03-08T01:39:05;101792.41;;;-1.08;100.00
20696;BME280;10507;52.754;13.040;2024-03-08T01:41:33;101784.31;;;-1.23;100.00
20696;BME280;10507;52.754;13.040;2024-03-08T01:44:01;101787.75;;;-1.26;100.00
20696;BME280;10507;52.754;13.040;2024-03-08T01:46:28;101779.84;;;-1.29;100.00
20696;BME280;10507;52.754;13.040;2024-03-08T01:48:57;101779.91;;;-1.28;100.00
20696;BME280;10507;52.754;13.040;2024-03-08T01:51:26;101776.63;;;-1.14;100.00
20696;BME280;10507;52.754;13.040;2024-03-08T01:53:55;101777.56;;;-1.09;100.00
20696;BME280;10507;52.754;13.040;2024-03-08T01:56:23;101769.59;;;-1.15;100.00
20696;BME280;10507;52.754;13.040;2024-03-08T01:58:50;101759.69;;;-1.33;100.00
20696;BME280;10507;52.754;13.040;2024-03-08T02:01:18;101759.59;;;-1.41;100.00
20696;BME280;10507;52.754;13.040;2024-03-08T02:03:45;101760.34;;;-1.47;100.00
20696;BME280;10507;52.754;13.040;2024-03-08T02:06:13;101768.34;;;-1.37;100.00
20696;BME280;10507;52.754;13.040;2024-03-08T02:08:41;101764.06;;;-1.34;100.00
20696;BME280;10507;52.754;13.040;2024-03-08T02:11:09;101758.72;;;-1.40;100.00
20696;BME280;10507;52.754;13.040;2024-03-08T02:13:36;101762.13;;;-1.45;100.00
20696;BME280;10507;52.754;13.040;2024-03-08T02:16:03;101767.63;;;-1.29;100.00
20696;BME280;10507;52.754;13.040;2024-03-08T02:18:30;101765.13;;;-1.22;100.00
20696;BME280;10507;52.754;13.040;2024-03-08T02:20:59;101755.56;;;-1.20;100.00
20696;BME280;10507;52.754;13.040;2024-03-08T02:23:26;101756.38;;;-1.21;100.00
20696;BME280;10507;52.754;13.040;2024-03-08T02:25:54;101753.84;;;-1.17;100.00
20696;BME280;10507;52.754;13.040;2024-03-08T02:28:22;101753.78;;;-1.21;100.00
20696;BME280;10507;52.754;13.040;2024-03-08T02:30:51;101753.63;;;-1.31;100.00
20696;BME280;10507;52.754;13.040;2024-03-08T02:33:20;101755.25;;;-1.37;100.00
20696;BME280;10507;52.754;13.040;2024-03-08T02:35:47;101746.41;;;-1.45;100.00
20696;BME280;10507;52.754;13.040;2024-03-08T02:38:18;101747.25;;;-1.47;100.00
20696;BME280;10507;52.754;13.040;2024-03-08T02:40:46;101748.28;;;-1.38;100.00
20696;BME280;10507;52.754;13.040;2024-03-08T02:43:13;101747.31;;;-1.42;100.00
20696;BME280;10507;52.754;13.040;2024-03-08T02:45:41;101750.03;;;-1.39;100.00
20696;BME280;10507;52.754;13.040;2024-03-08T02:48:09;101741.25;;;-1.39;100.00
20696;BME280;10507;52.754;13.040;2024-03-08T02:50:36;101733.41;;;-1.41;100.00
20696;BME280;10507;52.754;13.040;2024-03-08T02:53:05;101730.03;;;-1.32;100.00
20696;BME280;10507;52.754;13.040;2024-03-08T02:55:32;101729.06;;;-1.37;100.00
20696;BME280;10507;52.754;13.040;2024-03-08T02:58:01;101727.34;;;-1.35;100.00
20696;BME280;10507;52.754;13.040;2024-03-08T03:00:28;101726.53;;;-1.33;100.00
20696;BME280;10507;52.754;13.040;2024-03-08T03:02:56;101722.91;;;-1.39;100.00
20696;BME280;10507;52.754;13.040;2024-03-08T03:05:23;101733.34;;;-1.42;100.00
20696;BME280;10507;52.754;13.040;2024-03-08T03:07:50;101722.00;;;-1.43;100.00
20696;BME280;10507;52.754;13.040;2024-03-08T03:10:17;101719.47;;;-1.38;100.00
20696;BME280;10507;52.754;13.040;2024-03-08T03:12:45;101731.66;;;-1.40;100.00
20696;BME280;10507;52.754;13.040;2024-03-08T03:15:14;101733.41;;;-1.41;100.00
20696;BME280;10507;52.754;13.040;2024-03-08T03:17:45;101717.69;;;-1.41;100.00
20696;BME280;10507;52.754;13.040;2024-03-08T03:20:13;101721.94;;;-1.48;100.00
20696;BME280;10507;52.754;13.040;2024-03-08T03:22:40;101710.53;;;-1.48;100.00
20696;BME280;10507;52.754;13.040;2024-03-08T03:25:07;101715.91;;;-1.42;100.00
20696;BME280;10507;52.754;13.040;2024-03-08T03:27:35;101711.59;;;-1.37;100.00
20696;BME280;10507;52.754;13.040;2024-03-08T03:30:05;101711.59;;;-1.37;100.00
20696;BME280;10507;52.754;13.040;2024-03-08T03:32:46;101714.16;;;-1.41;100.00
20696;BME280;10507;52.754;13.040;2024-03-08T03:35:13;101712.38;;;-1.44;100.00
20696;BME280;10507;52.754;13.040;2024-03-08T03:37:41;101712.50;;;-1.35;100.00
20696;BME280;10507;52.754;13.040;2024-03-08T03:40:11;101709.91;;;-1.35;100.00
20696;BME280;10507;52.754;13.040;2024-03-08T03:42:38;101702.00;;;-1.38;100.00
20696;BME280;10507;52.754;13.040;2024-03-08T03:45:07;101704.66;;;-1.35;100.00
20696;BME280;10507;52.754;13.040;2024-03-08T03:47:35;101700.31;;;-1.34;100.00
20696;BME280;10507;52.754;13.040;2024-03-08T03:50:04;101696.88;;;-1.32;100.00
20696;BME280;10507;52.754;13.040;2024-03-08T03:52:31;101686.38;;;-1.32;100.00
20696;BME280;10507;52.754;13.040;2024-03-08T03:54:58;101693.47;;;-1.24;100.00
20696;BME280;10507;52.754;13.040;2024-03-08T03:57:25;101691.66;;;-1.29;100.00
20696;BME280;10507;52.754;13.040;2024-03-08T03:59:51;101695.22;;;-1.23;100.00
20696;BME280;10507;52.754;13.040;2024-03-08T04:02:19;101693.56;;;-1.17;100.00
20696;BME280;10507;52.754;13.040;2024-03-08T04:04:46;101691.03;;;-1.12;100.00
20696;BME280;10507;52.754;13.040;2024-03-08T04:07:13;101687.53;;;-1.13;100.00
20696;BME280;10507;52.754;13.040;2024-03-08T04:09:40;101694.56;;;-1.12;100.00
20696;BME280;10507;52.754;13.040;2024-03-08T04:12:07;101692.00;;;-1.07;100.00
20696;BME280;10507;52.754;13.040;2024-03-08T04:14:35;101689.31;;;-1.12;100.00
20696;BME280;10507;52.754;13.040;2024-03-08T04:17:02;101687.53;;;-1.13;100.00
20696;BME280;10507;52.754;13.040;2024-03-08T04:19:30;101674.47;;;-1.11;100.00
20696;BME280;10507;52.754;13.040;2024-03-08T04:21:57;101678.78;;;-1.13;100.00
20696;BME280;10507;52.754;13.040;2024-03-08T04:24:23;101686.63;;;-1.16;100.00
20696;BME280;10507;52.754;13.040;2024-03-08T04:26:50;101679.66;;;-1.14;100.00
20696;BME280;10507;52.754;13.040;2024-03-08T04:29:17;101677.88;;;-1.15;100.00
20696;BME280;10507;52.754;13.040;2024-03-08T04:31:44;101681.44;;;-1.12;100.00
20696;BME280;10507;52.754;13.040;2024-03-08T04:34:11;101684.84;;;-1.17;100.00
20696;BME280;10507;52.754;13.040;2024-03-08T04:39:31;101668.22;;;-1.19;100.00
20696;BME280;10507;52.754;13.040;2024-03-08T04:41:59;101679.56;;;-1.20;100.00
20696;BME280;10507;52.754;13.040;2024-03-08T04:44:29;101670.78;;;-1.24;100.00
20696;BME280;10507;52.754;13.040;2024-03-08T04:46:56;101668.97;;;-1.30;100.00
20696;BME280;10507;52.754;13.040;2024-03-08T04:49:22;101668.88;;;-1.33;100.00
20696;BME280;10507;52.754;13.040;2024-03-08T04:51:50;101668.81;;;-1.39;100.00
20696;BME280;10507;52.754;13.040;2024-03-08T04:54:17;101666.19;;;-1.39;100.00
20696;BME280;10507;52.754;13.040;2024-03-08T04:56:44;101667.91;;;-1.41;100.00
20696;BME280;10507;52.754;13.040;2024-03-08T04:59:11;101667.03;;;-1.40;100.00
20696;BME280;10507;52.754;13.040;2024-03-08T05:01:39;101667.81;;;-1.47;100.00
20696;BME280;10507;52.754;13.040;2024-03-08T05:04:05;101666.06;;;-1.47;100.00
20696;BME280;10507;52.754;13.040;2024-03-08T05:06:32;101660.72;;;-1.53;100.00
20696;BME280;10507;52.754;13.040;2024-03-08T05:09:00;101663.25;;;-1.59;100.00
20696;BME280;10507;52.754;13.040;2024-03-08T05:11:31;101662.41;;;-1.58;100.00
20696;BME280;10507;52.754;13.040;2024-03-08T05:13:58;101674.72;;;-1.51;100.00
20696;BME280;10507;52.754;13.040;2024-03-08T05:16:25;101668.56;;;-1.54;100.00
20696;BME280;10507;52.754;13.040;2024-03-08T05:18:51;101669.47;;;-1.51;100.00
20696;BME280;10507;52.754;13.040;2024-03-08T05:21:18;101667.00;;;-1.43;100.00
20696;BME280;10507;52.754;13.040;2024-03-08T05:23:45;101667.84;;;-1.44;100.00
20696;BME280;10507;52.754;13.040;2024-03-08T05:26:14;101660.94;;;-1.40;100.00
20696;BME280;10507;52.754;13.040;2024-03-08T05:28:41;101667.06;;;-1.37;100.00
20696;BME280;10507;52.754;13.040;2024-03-08T05:31:07;101668.88;;;-1.33;100.00
20696;BME280;10507;52.754;13.040;2024-03-08T05:33:34;101664.53;;;-1.34;100.00
20696;BME280;10507;52.754;13.040;2024-03-08T05:36:01;101653.13;;;-1.36;100.00
20696;BME280;10507;52.754;13.040;2024-03-08T05:38:27;101665.38;;;-1.35;100.00
20696;BME280;10507;52.754;13.040;2024-03-08T05:40:54;101663.66;;;-1.33;100.00
20696;BME280;10507;52.754;13.040;2024-03-08T05:43:22;101666.34;;;-1.28;100.00
20696;BME280;10507;52.754;13.040;2024-03-08T05:45:49;101657.69;;;-1.22;100.00
20696;BME280;10507;52.754;13.040;2024-03-08T05:48:16;101666.47;;;-1.19;100.00
20696;BME280;10507;52.754;13.040;2024-03-08T05:50:43;101661.25;;;-1.17;100.00
20696;BME280;10507;52.754;13.040;2024-03-08T05:53:10;101656.09;;;-1.14;100.00
20696;BME280;10507;52.754;13.040;2024-03-08T05:55:38;101655.25;;;-1.10;100.00
20696;BME280;10507;52.754;13.040;2024-03-08T05:58:05;101646.59;;;-1.05;100.00
20696;BME280;10507;52.754;13.040;2024-03-08T06:00:34;101648.34;;;-1.03;100.00
20696;BME280;10507;52.754;13.040;2024-03-08T06:03:02;101642.28;;;-0.99;100.00
20696;BME280;10507;52.754;13.040;2024-03-08T06:05:29;101644.06;;;-0.98;100.00
20696;BME280;10507;52.754;13.040;2024-03-08T06:07:55;101645.88;;;-0.93;100.00
20696;BME280;10507;52.754;13.040;2024-03-08T06:10:22;101644.06;;;-0.98;100.00
20696;BME280;10507;52.754;13.040;2024-03-08T06:12:49;101652.75;;;-1.01;100.00
20696;BME280;10507;52.754;13.040;2024-03-08T06:15:16;101649.41;;;-0.91;100.00
20696;BME280;10507;52.754;13.040;2024-03-08T06:17:47;101655.09;;;-0.55;100.00
20696;BME280;10507;52.754;13.040;2024-03-08T06:20:14;101652.81;;;-0.23;100.00
20696;BME280;10507;52.754;13.040;2024-03-08T06:22:40;101653.31;;;0.31;100.00
20696;BME280;10507;52.754;13.040;2024-03-08T06:25:08;101649.31;;;0.85;100.00
20696;BME280;10507;52.754;13.040;2024-03-08T06:27:36;101640.94;;;1.64;100.00
20696;BME280;10507;52.754;13.040;2024-03-08T06:30:04;101597.97;;;1.99;98.86
20696;BME280;10507;52.754;13.040;2024-03-08T06:32:31;101571.59;;;2.55;97.31
20696;BME280;10507;52.754;13.040;2024-03-08T06:35:02;101515.16;;;3.02;95.11
20696;BME280;10507;52.754;13.040;2024-03-08T06:37:31;101436.50;;;3.56;92.15
20696;BME280;10507;52.754;13.040;2024-03-08T06:39:58;101348.00;;;4.03;89.61
20696;BME280;10507;52.754;13.040;2024-03-08T06:42:26;101197.94;;;4.27;85.70
20696;BME280;10507;52.754;13.040;2024-03-08T06:44:53;101038.72;;;4.12;83.50
20696;BME280;10507;52.754;13.040;2024-03-08T06:47:21;101044.09;;;4.57;82.14
20696;BME280;10507;52.754;13.040;2024-03-08T06:49:51;100893.50;;;4.51;80.25
20696;BME280;10507;52.754;13.040;2024-03-08T06:52:19;100909.56;;;4.83;79.39
20696;BME280;10507;52.754;13.040;2024-03-08T06:54:45;100953.78;;;5.18;78.38
20696;BME280;10507;52.754;13.040;2024-03-08T06:57:12;100864.41;;;5.28;77.04
20696;BME280;10507;52.754;13.040;2024-03-08T06:59:39;100921.91;;;5.94;76.14
20696;BME280;10507;52.754;13.040;2024-03-08T07:02:06;100936.34;;;6.48;75.28
20696;BME280;10507;52.754;13.040;2024-03-08T07:04:34;100793.09;;;6.48;73.92
20696;BME280;10507;52.754;13.040;2024-03-08T07:07:03;100788.94;;;6.68;72.07
20696;BME280;10507;52.754;13.040;2024-03-08T07:09:31;100682.16;;;6.87;71.15
20696;BME280;10507;52.754;13.040;2024-03-08T07:11:58;100638.66;;;7.17;70.02
20696;BME280;10507;52.754;13.040;2024-03-08T07:14:24;100631.50;;;6.69;70.53
20696;BME280;10507;52.754;13.040;2024-03-08T07:16:51;100879.66;;;7.35;71.27
20696;BME280;10507;52.754;13.040;2024-03-08T07:19:18;100670.72;;;7.11;70.53
20696;BME280;10507;52.754;13.040;2024-03-08T07:21:46;100602.50;;;6.89;69.77
20696;BME280;10507;52.754;13.040;2024-03-08T07:24:13;100822.03;;;7.64;69.63
20696;BME280;10507;52.754;13.040;2024-03-08T07:26:54;100716.78;;;7.35;69.66
20696;BME280;10507;52.754;13.040;2024-03-08T07:29:21;100581.69;;;7.02;68.91
20696;BME280;10507;52.754;13.040;2024-03-08T07:31:48;100725.09;;;7.25;69.39
20696;BME280;10507;52.754;13.040;2024-03-08T07:34:23;100616.97;;;7.04;69.53
20696;BME280;10507;52.754;13.040;2024-03-08T07:36:50;100685.16;;;6.23;71.82
20696;BME280;10507;52.754;13.040;2024-03-08T07:39:17;100846.84;;;6.55;72.18
20696;BME280;10507;52.754;13.040;2024-03-08T07:41:44;100811.09;;;6.66;72.58
20696;BME280;10507;52.754;13.040;2024-03-08T07:44:12;100732.09;;;6.75;70.52
20696;BME280;10507;52.754;13.040;2024-03-08T07:46:39;100724.41;;;6.67;71.30
20696;BME280;10507;52.754;13.040;2024-03-08T07:49:06;100777.84;;;6.83;71.27
20696;BME280;10507;52.754;13.040;2024-03-08T07:51:36;100771.78;;;6.79;71.63
20696;BME280;10507;52.754;13.040;2024-03-08T07:54:03;100750.16;;;7.17;70.48
20696;BME280;10507;52.754;13.040;2024-03-08T07:56:30;100707.88;;;6.85;70.84
20696;BME280;10507;52.754;13.040;2024-03-08T07:58:56;100721.75;;;6.94;70.39
20696;BME280;10507;52.754;13.040;2024-03-08T08:01:24;100767.41;;;6.77;71.88
20696;BME280;10507;52.754;13.040;2024-03-08T08:03:51;100725.47;;;6.88;70.46
20696;BME280;10507;52.754;13.040;2024-03-08T08:06:18;100811.00;;;6.70;71.47
20696;BME280;10507;52.754;13.040;2024-03-08T08:08:45;100860.88;;;6.58;72.42
20696;BME280;10507;52.754;13.040;2024-03-08T08:11:11;100873.44;;;6.52;73.33
20696;BME280;10507;52.754;13.040;2024-03-08T08:13:38;100899.66;;;6.31;73.73
20696;BME280;10507;52.754;13.040;2024-03-08T08:16:05;100889.50;;;6.47;73.93
20696;BME280;10507;52.754;13.040;2024-03-08T08:18:34;100934.41;;;6.53;73.70
20696;BME280;10507;52.754;13.040;2024-03-08T08:21:01;100942.41;;;6.52;73.90
20696;BME280;10507;52.754;13.040;2024-03-08T08:23:28;100867.84;;;6.61;73.01
20696;BME280;10507;52.754;13.040;2024-03-08T08:25:55;100843.22;;;6.57;72.83
20696;BME280;10507;52.754;13.040;2024-03-08T08:28:21;100839.50;;;6.33;72.63
20696;BME280;10507;52.754;13.040;2024-03-08T08:30:48;100864.25;;;6.34;73.21
20696;BME280;10507;52.754;13.040;2024-03-08T08:33:15;100837.13;;;6.24;73.43
20696;BME280;10507;52.754;13.040;2024-03-08T08:35:43;100834.00;;;6.10;73.07
20696;BME280;10507;52.754;13.040;2024-03-08T08:38:10;100852.69;;;6.05;73.50
20696;BME280;10507;52.754;13.040;2024-03-08T08:40:37;100858.16;;;5.99;73.83
20696;BME280;10507;52.754;13.040;2024-03-08T08:43:03;100897.13;;;5.94;74.30
20696;BME280;10507;52.754;13.040;2024-03-08T08:45:30;100948.03;;;6.08;74.46
20696;BME280;10507;52.754;13.040;2024-03-08T08:47:57;100852.03;;;5.97;73.79
20696;BME280;10507;52.754;13.040;2024-03-08T08:50:25;100800.88;;;5.93;73.21
20696;BME280;10507;52.754;13.040;2024-03-08T08:52:55;100813.84;;;6.04;72.46
20696;BME280;10507;52.754;13.040;2024-03-08T08:55:22;100814.88;;;5.98;72.92
20696;BME280;10507;52.754;13.040;2024-03-08T08:57:50;100867.72;;;6.04;73.49
20696;BME280;10507;52.754;13.040;2024-03-08T09:00:18;100902.03;;;6.09;73.28
20696;BME280;10507;52.754;13.040;2024-03-08T09:02:46;100799.88;;;5.99;72.76
20696;BME280;10507;52.754;13.040;2024-03-08T09:05:13;100797.81;;;6.09;72.48
20696;BME280;10507;52.754;13.040;2024-03-08T09:07:42;100797.91;;;6.06;72.33
20696;BME280;10507;52.754;13.040;2024-03-08T09:10:11;100782.34;;;5.92;72.67
20696;BME280;10507;52.754;13.040;2024-03-08T09:12:39;100804.47;;;5.91;72.91
20696;BME280;10507;52.754;13.040;2024-03-08T09:15:07;100856.94;;;6.11;72.82
20696;BME280;10507;52.754;13.040;2024-03-08T09:17:36;100888.59;;;6.17;73.09
20696;BME280;10507;52.754;13.040;2024-03-08T09:20:05;100909.41;;;6.31;73.47
20696;BME280;10507;52.754;13.040;2024-03-08T09:22:32;100807.66;;;6.35;72.46
20696;BME280;10507;52.754;13.040;2024-03-08T09:24:59;100738.22;;;6.22;71.51
20696;BME280;10507;52.754;13.040;2024-03-08T09:27:27;100798.41;;;6.18;72.31
20696;BME280;10507;52.754;13.040;2024-03-08T09:29:55;100857.22;;;6.33;72.82
20696;BME280;10507;52.754;13.040;2024-03-08T09:32:22;100760.31;;;6.21;72.15
20696;BME280;10507;52.754;13.040;2024-03-08T09:34:49;100744.31;;;6.26;71.71
20696;BME280;10507;52.754;13.040;2024-03-08T09:37:15;100676.25;;;6.24;71.13
20696;BME280;10507;52.754;13.040;2024-03-08T09:39:42;100599.06;;;6.34;69.60
20696;BME280;10507;52.754;13.040;2024-03-08T09:42:09;100559.34;;;6.32;69.15
20696;BME280;10507;52.754;13.040;2024-03-08T09:44:44;100423.72;;;6.19;68.07
20696;BME280;10507;52.754;13.040;2024-03-08T09:47:13;100409.03;;;6.09;67.44
20696;BME280;10507;52.754;13.040;2024-03-08T09:49:40;100568.19;;;6.33;68.39
20696;BME280;10507;52.754;13.040;2024-03-08T09:52:09;100532.63;;;6.38;68.06
20696;BME280;10507;52.754;13.040;2024-03-08T09:54:37;100498.97;;;6.40;67.48
20696;BME280;10507;52.754;13.040;2024-03-08T09:57:04;100528.06;;;6.43;67.78
20696;BME280;10507;52.754;13.040;2024-03-08T09:59:33;100448.75;;;6.36;67.65
20696;BME280;10507;52.754;13.040;2024-03-08T10:02:18;100475.25;;;6.36;67.37
20696;BME280;10507;52.754;13.040;2024-03-08T10:04:46;100483.88;;;6.42;67.55
20696;BME280;10507;52.754;13.040;2024-03-08T10:07:13;100602.53;;;6.62;68.60
20696;BME280;10507;52.754;13.040;2024-03-08T10:09:40;100558.91;;;6.71;67.66
20696;BME280;10507;52.754;13.040;2024-03-08T10:12:07;100566.56;;;6.79;67.83
20696;BME280;10507;52.754;13.040;2024-03-08T10:14:39;100536.66;;;6.75;67.66
20696;BME280;10507;52.754;13.040;2024-03-08T10:17:06;100472.84;;;6.78;66.89
20696;BME280;10507;52.754;13.040;2024-03-08T10:19:34;100416.22;;;6.79;66.18
20696;BME280;10507;52.754;13.040;2024-03-08T10:22:01;100491.47;;;7.00;65.94
20696;BME280;10507;52.754;13.040;2024-03-08T10:24:29;100487.31;;;7.17;66.36
20696;BME280;10507;52.754;13.040;2024-03-08T10:26:59;100488.25;;;7.16;66.32
20696;BME280;10507;52.754;13.040;2024-03-08T10:29:27;100368.63;;;6.97;65.41
20696;BME280;10507;52.754;13.040;2024-03-08T10:31:54;100381.22;;;6.92;65.45
20696;BME280;10507;52.754;13.040;2024-03-08T10:34:22;100355.19;;;7.01;65.20
20696;BME280;10507;52.754;13.040;2024-03-08T10:36:51;100339.63;;;6.92;64.95
20696;BME280;10507;52.754;13.040;2024-03-08T10:39:21;100309.44;;;6.95;64.58
20696;BME280;10507;52.754;13.040;2024-03-08T10:41:53;100250.44;;;6.88;63.87
20696;BME280;10507;52.754;13.040;2024-03-08T10:44:30;100275.88;;;6.94;64.26
20696;BME280;10507;52.754;13.040;2024-03-08T10:47:01;100277.53;;;6.96;64.65
20696;BME280;10507;52.754;13.040;2024-03-08T10:49:31;100337.31;;;7.06;64.40
20696;BME280;10507;52.754;13.040;2024-03-08T10:52:03;100231.13;;;7.06;63.45
20696;BME280;10507;52.754;13.040;2024-03-08T10:54:33;100241.25;;;7.17;62.82
20696;BME280;10507;52.754;13.040;2024-03-08T10:57:03;100269.69;;;7.15;63.70
20696;BME280;10507;52.754;13.040;2024-03-08T10:59:31;100244.66;;;7.21;63.45
20696;BME280;10507;52.754;13.040;2024-03-08T11:01:59;100352.22;;;7.31;64.43
20696;BME280;10507;52.754;13.040;2024-03-08T11:04:26;100313.84;;;7.38;63.77
20696;BME280;10507;52.754;13.040;2024-03-08T11:07:00;100264.00;;;7.45;63.16
20696;BME280;10507;52.754;13.040;2024-03-08T11:09:31;100196.66;;;7.46;62.31
20696;BME280;10507;52.754;13.040;2024-03-08T11:12:24;100078.84;;;7.28;62.06
20696;BME280;10507;52.754;13.040;2024-03-08T11:14:56;100198.72;;;7.39;61.59
20696;BME280;10507;52.754;13.040;2024-03-08T11:17:40;100154.09;;;7.47;61.45
20696;BME280;10507;52.754;13.040;2024-03-08T11:20:10;100284.38;;;7.65;62.38
20696;BME280;10507;52.754;13.040;2024-03-08T11:22:41;100264.72;;;7.69;62.26
20696;BME280;10507;52.754;13.040;2024-03-08T11:25:31;100303.88;;;7.84;62.69
20696;BME280;10507;52.754;13.040;2024-03-08T11:28:07;100219.94;;;7.80;61.93
20696;BME280;10507;52.754;13.040;2024-03-08T11:30:34;100168.75;;;7.75;61.14
20696;BME280;10507;52.754;13.040;2024-03-08T11:33:03;100229.75;;;7.78;61.98
20696;BME280;10507;52.754;13.040;2024-03-08T11:35:30;100197.66;;;7.83;61.27
20696;BME280;10507;52.754;13.040;2024-03-08T11:37:58;100227.59;;;7.86;61.27
20696;BME280;10507;52.754;13.040;2024-03-08T11:40:27;100250.44;;;7.90;62.43
20696;BME280;10507;52.754;13.040;2024-03-08T11:42:53;100109.56;;;7.90;60.84
20696;BME280;10507;52.754;13.040;2024-03-08T11:45:20;100101.09;;;8.01;60.23
20696;BME280;10507;52.754;13.040;2024-03-08T11:47:47;100212.88;;;8.17;60.67
20696;BME280;10507;52.754;13.040;2024-03-08T11:50:14;100151.28;;;8.26;60.58
20696;BME280;10507;52.754;13.040;2024-03-08T11:52:43;100139.41;;;8.33;60.21
20696;BME280;10507;52.754;13.040;2024-03-08T11:55:11;100139.41;;;8.33;60.01
20696;BME280;10507;52.754;13.040;2024-03-08T11:57:40;100030.34;;;8.33;59.51
20696;BME280;10507;52.754;13.040;2024-03-08T12:00:15;99976.22;;;8.17;58.30
20696;BME280;10507;52.754;13.040;2024-03-08T12:03:01;100124.84;;;8.23;59.50
20696;BME280;10507;52.754;13.040;2024-03-08T12:05:27;100055.69;;;8.23;58.95
20696;BME280;10507;52.754;13.040;2024-03-08T12:07:56;100036.94;;;8.26;58.61
20696;BME280;10507;52.754;13.040;2024-03-08T12:10:24;100066.78;;;8.31;58.66
20696;BME280;10507;52.754;13.040;2024-03-08T12:12:53;100022.00;;;8.24;59.37
20696;BME280;10507;52.754;13.040;2024-03-08T12:15:20;100164.22;;;8.34;59.31
20696;BME280;10507;52.754;13.040;2024-03-08T12:17:49;100187.16;;;8.37;60.49
20696;BME280;10507;52.754;13.040;2024-03-08T12:20:17;100254.16;;;8.45;61.10
20696;BME280;10507;52.754;13.040;2024-03-08T12:22:47;100351.75;;;8.63;61.14
20696;BME280;10507;52.754;13.040;2024-03-08T12:25:15;100086.25;;;8.51;59.36
20696;BME280;10507;52.754;13.040;2024-03-08T12:27:43;100132.91;;;8.58;59.03
20696;BME280;10507;52.754;13.040;2024-03-08T12:30:19;100249.25;;;8.73;60.54
20696;BME280;10507;52.754;13.040;2024-03-08T12:32:53;100100.84;;;8.61;59.61
20696;BME280;10507;52.754;13.040;2024-03-08T12:35:22;100164.38;;;8.67;59.33
20696;BME280;10507;52.754;13.040;2024-03-08T12:37:50;100128.84;;;8.68;59.48
20696;BME280;10507;52.754;13.040;2024-03-08T12:40:19;100118.81;;;8.73;59.06
20696;BME280;10507;52.754;13.040;2024-03-08T12:42:46;100202.75;;;8.81;59.56
20696;BME280;10507;52.754;13.040;2024-03-08T12:45:14;100095.25;;;8.83;59.11
20696;BME280;10507;52.754;13.040;2024-03-08T12:47:42;100116.53;;;8.83;58.73